createdAt,value
2022-11-29T13:18:54.635Z,69.00
2022-11-29T13:22:28.747Z,79.10
2022-11-29T13:25:58.736Z,75.80
2022-11-29T13:29:27.476Z,74.70
2022-11-29T13:33:00.272Z,77.10
2022-11-29T13:36:39.867Z,79.30
2022-11-29T13:40:21.067Z,75.40
2022-11-29T13:43:53.161Z,72.70
2022-11-29T13:47:21.345Z,76.30
2022-11-29T13:50:51.381Z,73.70
2022-11-29T13:54:32.135Z,76.00
2022-11-29T13:58:20.709Z,70.80
2022-11-29T14:01:52.869Z,76.60
2022-11-29T14:05:33.590Z,71.80
2022-11-29T14:09:20.288Z,81.70
2022-11-29T14:12:54.796Z,94.40
2022-11-29T14:16:30.412Z,79.10
2022-11-29T14:20:33.970Z,71.60
2022-11-29T14:24:42.182Z,69.10
2022-11-29T14:28:31.694Z,66.40
2022-11-29T14:32:00.281Z,61.00
2022-11-29T14:35:35.471Z,61.10
2022-11-29T14:39:14.964Z,66.50
2022-11-29T14:42:49.806Z,68.10
2022-11-29T14:46:29.630Z,65.40
2022-11-29T14:49:58.588Z,61.00
2022-11-29T14:53:37.357Z,71.60
2022-11-29T14:57:40.981Z,89.30
2022-11-29T15:04:40.084Z,81.50
2022-11-29T15:08:13.504Z,73.80
2022-11-29T15:11:56.836Z,60.40
2022-11-29T15:15:46.088Z,86.00
2022-11-29T15:19:50.809Z,58.10
2022-11-29T15:23:19.626Z,56.30
2022-11-29T15:26:59.524Z,49.60
2022-11-29T15:30:48.691Z,47.80
2022-11-29T15:34:24.995Z,49.90
2022-11-29T15:37:53.348Z,52.50
2022-11-29T15:41:28.980Z,57.90
2022-11-29T15:44:55.949Z,54.20
2022-11-29T15:48:25.544Z,55.30
2022-11-29T15:51:57.021Z,53.40
2022-11-29T15:55:24.363Z,58.40
2022-11-29T15:58:52.635Z,58.00
2022-11-29T16:02:22.720Z,56.90
2022-11-29T16:05:56.439Z,59.00
2022-11-29T16:09:36.288Z,58.30
2022-11-29T16:13:06.929Z,56.90
2022-11-29T16:16:35.922Z,58.50
2022-11-29T16:20:24.902Z,60.80
2022-11-29T16:23:51.807Z,54.30
2022-11-29T16:27:20.679Z,57.40
2022-11-29T16:30:58.014Z,58.30
2022-11-29T16:34:33.388Z,57.00
2022-11-29T16:38:00.807Z,58.80
2022-11-29T16:41:36.169Z,56.30
2022-11-29T16:45:07.337Z,63.50
2022-11-29T16:48:38.779Z,67.00
2022-11-29T16:52:24.766Z,58.70
2022-11-29T16:55:53.113Z,59.50
2022-11-29T16:59:27.864Z,72.00
2022-11-29T17:02:58.424Z,62.10
2022-11-29T17:06:26.504Z,65.40
2022-11-29T17:09:54.939Z,67.20
2022-11-29T17:13:21.596Z,64.80
2022-11-29T17:16:50.009Z,66.60
2022-11-29T17:20:17.491Z,66.20
2022-11-29T17:23:44.464Z,64.90
2022-11-29T17:27:12.813Z,69.50
2022-11-29T17:30:41.286Z,68.60
2022-11-29T17:34:11.444Z,64.50
2022-11-29T17:37:41.207Z,55.00
2022-11-29T17:41:18.235Z,61.40
2022-11-29T17:44:47.873Z,61.70
2022-11-29T17:48:15.410Z,64.30
2022-11-29T17:51:51.716Z,68.00
2022-11-29T17:55:20.949Z,55.60
2022-11-29T17:58:52.362Z,56.70
2022-11-29T18:02:19.552Z,61.10
2022-11-29T18:05:46.481Z,60.60
2022-11-29T18:09:14.230Z,63.50
2022-11-29T18:12:41.550Z,64.00
2022-11-29T18:16:13.182Z,64.00
2022-11-29T18:19:40.042Z,61.50
2022-11-29T18:23:08.374Z,63.60
2022-11-29T18:26:36.858Z,62.80
2022-11-29T18:30:09.548Z,60.00
2022-11-29T18:33:36.115Z,58.50
2022-11-29T18:37:03.689Z,59.00
2022-11-29T18:40:31.431Z,66.70
2022-11-29T18:44:03.422Z,64.50
2022-11-29T18:47:33.113Z,67.80
2022-11-29T18:51:04.579Z,59.50
2022-11-29T18:54:31.619Z,60.90
2022-11-29T18:57:58.444Z,55.50
2022-11-29T19:01:26.580Z,59.60
2022-11-29T19:04:53.812Z,62.30
2022-11-29T19:08:20.556Z,62.40
2022-11-29T19:11:49.042Z,59.10
2022-11-29T19:15:17.552Z,60.30
2022-11-29T19:18:44.171Z,59.50
2022-11-29T19:22:13.959Z,58.70
2022-11-29T19:25:40.427Z,67.50
2022-11-29T19:29:07.564Z,66.10
2022-11-29T19:32:38.099Z,58.60
2022-11-29T19:36:12.657Z,76.30
2022-11-29T19:39:39.510Z,74.20
2022-11-29T19:43:06.814Z,73.40
2022-11-29T19:46:35.796Z,73.30
2022-11-29T19:50:03.729Z,67.70
2022-11-29T19:53:35.193Z,75.30
2022-11-29T19:57:03.068Z,70.30
2022-11-29T20:00:31.618Z,85.60
2022-11-29T20:04:07.990Z,74.40
2022-11-29T20:07:35.721Z,77.90
2022-11-29T20:11:10.278Z,66.60
2022-11-29T20:14:41.390Z,71.50
2022-11-29T20:18:08.343Z,67.90
2022-11-29T20:21:35.792Z,72.70
2022-11-29T20:25:03.217Z,63.30
2022-11-29T20:28:32.283Z,72.60
2022-11-29T20:31:58.893Z,80.90
2022-11-29T20:35:26.663Z,73.80
2022-11-29T20:39:01.710Z,77.40
2022-11-29T20:43:07.992Z,77.10
2022-11-29T20:46:35.299Z,83.00
2022-11-29T20:50:03.449Z,78.10
2022-11-29T20:53:39.539Z,78.50
2022-11-29T20:57:06.494Z,81.00
2022-11-29T21:00:36.898Z,78.90
2022-11-29T21:04:04.918Z,77.30
2022-11-29T21:07:31.673Z,76.50
2022-11-29T21:11:06.058Z,76.40
2022-11-29T21:14:35.180Z,75.90
2022-11-29T21:18:03.431Z,74.00
2022-11-29T21:21:34.080Z,72.40
2022-11-29T21:25:14.740Z,66.40
2022-11-29T21:28:50.647Z,68.30
2022-11-29T21:32:24.746Z,68.10
2022-11-29T21:35:58.523Z,72.10
2022-11-29T21:39:31.309Z,71.50
2022-11-29T21:43:04.636Z,68.30
2022-11-29T21:46:33.999Z,71.90
2022-11-29T21:50:00.974Z,74.10
2022-11-29T21:53:29.725Z,70.50
2022-11-29T21:56:57.461Z,69.80
2022-11-29T22:00:27.349Z,71.80
2022-11-29T22:03:55.649Z,68.20
2022-11-29T22:07:22.530Z,69.00
2022-11-29T22:10:49.085Z,68.50
2022-11-29T22:14:18.402Z,84.30
2022-11-29T22:17:46.238Z,84.50
2022-11-29T22:21:13.011Z,69.50
2022-11-29T22:24:40.946Z,68.20
2022-11-29T22:28:10.458Z,72.30
2022-11-29T22:31:38.976Z,70.70
2022-11-29T22:35:06.091Z,69.40
2022-11-29T22:38:33.996Z,64.80
2022-11-29T22:42:00.207Z,62.40
2022-11-29T22:45:28.222Z,67.80
2022-11-29T22:48:56.894Z,68.00
2022-11-29T22:52:23.276Z,66.70
2022-11-29T22:55:50.264Z,65.80
2022-11-29T22:59:17.958Z,79.50
2022-11-29T23:02:45.479Z,68.40
2022-11-29T23:06:14.706Z,72.80
2022-11-29T23:09:44.767Z,71.00
2022-11-29T23:13:12.223Z,70.10
2022-11-29T23:16:38.888Z,74.60
2022-11-29T23:20:07.943Z,67.90
2022-11-29T23:23:38.117Z,70.20
2022-11-29T23:27:05.882Z,66.10
2022-11-29T23:30:33.824Z,65.20
2022-11-29T23:34:00.548Z,64.90
2022-11-29T23:37:47.463Z,67.60
2022-11-29T23:41:31.342Z,68.10
2022-11-29T23:44:58.483Z,67.90
2022-11-29T23:48:25.749Z,64.90
2022-11-29T23:51:54.111Z,65.10
2022-11-29T23:55:25.370Z,66.40
2022-11-29T23:58:59.136Z,64.90
